Time;durP1;ratioP1;P1;durP2;ratioP2;P2;SDS_P1;SDS_P2;PMS_P1;PMS_P2;Temp;Humidity;BMP_temperature;BMP_pressure;BME280_temperature;BME280_humidity;BME280_pressure;Samples;Min_cycle;Max_cycle;Signal;HPM_P1;HPM_P2
2022/05/27 00:00:44;;;;;;;8.50;1.88;;;20.30;80.00;;;;;;5074046;28;20028;-59
2022/05/27 00:03:11;;;;;;;4.78;2.00;;;20.40;80.10;;;;;;5074681;28;20033;-65
2022/05/27 00:05:37;;;;;;;8.52;1.95;;;20.30;80.10;;;;;;5074043;28;20021;-61
2022/05/27 00:08:03;;;;;;;4.53;1.40;;;20.30;80.90;;;;;;5074173;28;20086;-68
2022/05/27 00:10:28;;;;;;;5.22;1.55;;;20.30;80.30;;;;;;5074419;28;20040;-69
2022/05/27 00:12:54;;;;;;;8.07;1.95;;;20.30;80.50;;;;;;5074770;28;20040;-59
2022/05/27 00:15:20;;;;;;;10.32;2.30;;;20.30;80.60;;;;;;5073914;28;20481;-68
2022/05/27 00:17:45;;;;;;;12.68;2.17;;;20.30;80.70;;;;;;5074322;28;20127;-62
2022/05/27 00:20:11;;;;;;;7.65;1.70;;;20.20;80.70;;;;;;5073683;28;20039;-64
2022/05/27 00:22:37;;;;;;;7.88;1.95;;;20.20;80.90;;;;;;5073823;28;20036;-68
2022/05/27 00:25:03;;;;;;;9.10;2.13;;;20.20;81.00;;;;;;5074476;28;20029;-64
2022/05/27 00:27:29;;;;;;;7.80;1.85;;;20.20;80.90;;;;;;5074216;28;20043;-60
2022/05/27 00:29:54;;;;;;;11.15;2.35;;;20.20;81.10;;;;;;5074069;28;20032;-63
2022/05/27 00:32:20;;;;;;;10.07;2.20;;;20.20;81.10;;;;;;5073736;28;20086;-63
2022/05/27 00:34:46;;;;;;;8.48;2.00;;;20.20;81.30;;;;;;5073178;28;20024;-68
2022/05/27 00:37:12;;;;;;;9.85;2.20;;;20.10;81.30;;;;;;5072770;28;20060;-59
2022/05/27 00:39:41;;;;;;;10.38;2.20;;;20.20;81.50;;;;;;5055570;28;20036;-68
2022/05/27 00:42:07;;;;;;;5.03;1.90;;;20.10;81.70;;;;;;5074078;28;20028;-61
2022/05/27 00:44:32;;;;;;;8.25;1.98;;;20.10;81.60;;;;;;5073530;28;20025;-59
2022/05/27 00:47:04;;;;;;;9.25;2.30;;;20.10;81.80;;;;;;5073757;28;20503;-62
2022/05/27 00:49:32;;;;;;;8.05;1.88;;;20.00;82.00;;;;;;5073555;28;20067;-66
2022/05/27 00:52:04;;;;;;;10.50;2.20;;;20.10;82.20;;;;;;5073562;28;20020;-61
2022/05/27 00:54:30;;;;;;;7.82;2.08;;;20.00;82.10;;;;;;5073441;28;20059;-65
2022/05/27 00:57:07;;;;;;;10.52;2.50;;;20.10;82.20;;;;;;5073193;28;20479;-64
2022/05/27 00:59:40;;;;;;;9.90;1.98;;;20.00;82.40;;;;;;5073584;28;20032;-60
2022/05/27 01:02:06;;;;;;;8.52;1.75;;;20.00;82.40;;;;;;5072971;28;20029;-62
2022/05/27 01:04:34;;;;;;;8.85;1.80;;;20.00;82.30;;;;;;5072879;28;20108;-59
2022/05/27 01:06:59;;;;;;;6.93;1.85;;;20.00;82.40;;;;;;5073157;28;20073;-65
2022/05/27 01:09:28;;;;;;;6.45;2.17;;;20.00;82.50;;;;;;5073428;28;20111;-62
2022/05/27 01:12:15;;;;;;;8.77;2.13;;;20.00;82.70;;;;;;5073182;28;20112;-63
2022/05/27 01:14:53;;;;;;;9.05;2.60;;;20.00;82.60;;;;;;5072978;28;20039;-63
2022/05/27 01:17:47;;;;;;;12.73;3.08;;;20.00;82.90;;;;;;5072887;28;20466;-62
2022/05/27 01:20:42;;;;;;;11.57;2.50;;;20.00;82.80;;;;;;5073062;28;20369;-62
2022/05/27 01:23:41;;;;;;;10.95;2.70;;;20.00;82.90;;;;;;5073096;28;20469;-59
2022/05/27 01:26:34;;;;;;;13.55;2.63;;;20.00;82.90;;;;;;5073208;28;20056;-61
2022/05/27 01:29:27;;;;;;;9.38;2.80;;;19.90;82.90;;;;;;5072725;28;20153;-62
2022/05/27 01:32:15;;;;;;;12.65;3.10;;;19.90;83.30;;;;;;5072611;28;20028;-59
2022/05/27 01:35:05;;;;;;;11.57;2.45;;;19.90;83.30;;;;;;5072705;28;20021;-68
2022/05/27 01:37:51;;;;;;;9.00;2.67;;;19.90;83.20;;;;;;5071509;28;20032;-61
2022/05/27 01:40:46;;;;;;;7.53;2.35;;;19.90;83.30;;;;;;5054578;28;20024;-61
2022/05/27 01:43:21;;;;;;;11.75;2.75;;;19.80;83.90;;;;;;5031473;28;20497;-60
2022/05/27 01:45:57;;;;;;;9.02;2.90;;;19.90;83.50;;;;;;5070985;28;20024;-60
2022/05/27 01:48:31;;;;;;;12.07;2.65;;;19.80;83.60;;;;;;5072873;28;20116;-60
2022/05/27 01:51:26;;;;;;;9.27;2.97;;;19.80;83.70;;;;;;5072800;28;20024;-60
2022/05/27 01:53:57;;;;;;;10.50;2.63;;;19.80;83.70;;;;;;5072734;28;20031;-60
2022/05/27 01:56:26;;;;;;;10.32;2.70;;;19.80;83.90;;;;;;5072934;28;20043;-60
2022/05/27 01:59:13;;;;;;;10.00;2.65;;;19.80;84.10;;;;;;5072726;28;20012;-69
2022/05/27 02:01:52;;;;;;;10.60;3.13;;;19.80;84.20;;;;;;5072603;28;20056;-60
2022/05/27 02:04:49;;;;;;;12.65;3.50;;;19.80;83.90;;;;;;5072598;28;20033;-63
2022/05/27 02:07:25;;;;;;;13.32;3.13;;;19.80;83.80;;;;;;5003499;28;20194;-62
2022/05/27 02:09:58;;;;;;;12.35;3.80;;;19.70;84.20;;;;;;5070345;28;20110;-62
2022/05/27 02:12:36;;;;;;;14.38;3.25;;;19.80;84.30;;;;;;5072485;28;20028;-62
2022/05/27 02:15:12;;;;;;;9.68;3.47;;;19.80;84.20;;;;;;5072385;28;20031;-61
2022/05/27 02:17:42;;;;;;;13.25;3.97;;;19.80;84.40;;;;;;5072439;28;20385;-67
2022/05/27 02:20:16;;;;;;;16.85;3.92;;;19.70;84.50;;;;;;5072773;28;20021;-60
2022/05/27 02:22:48;;;;;;;15.02;4.00;;;19.70;84.50;;;;;;5072301;28;20029;-60
2022/05/27 02:25:22;;;;;;;13.00;3.90;;;19.70;84.70;;;;;;5072696;28;20032;-61
2022/05/27 02:27:56;;;;;;;11.50;3.80;;;19.70;84.60;;;;;;5072659;28;20055;-68
2022/05/27 02:30:29;;;;;;;11.77;3.55;;;19.70;84.80;;;;;;5072061;28;20035;-69
2022/05/27 02:36:16;;;;;;;11.73;4.07;;;19.60;85.00;;;;;;5072304;28;20063;-62
2022/05/27 02:38:42;;;;;;;14.65;3.92;;;19.60;85.30;;;;;;5071891;28;20488;-62
2022/05/27 02:41:22;;;;;;;14.57;4.07;;;19.60;85.30;;;;;;5072507;28;20390;-65
2022/05/27 02:44:10;;;;;;;12.93;4.38;;;19.60;85.60;;;;;;5068374;28;20025;-63
2022/05/27 02:47:03;;;;;;;15.60;4.43;;;19.60;85.70;;;;;;5071533;28;20109;-69
2022/05/27 02:49:57;;;;;;;17.63;4.88;;;19.60;85.90;;;;;;5069896;28;20489;-61
2022/05/27 02:52:35;;;;;;;10.95;3.83;;;19.60;86.10;;;;;;5072161;28;20030;-64
2022/05/27 02:55:18;;;;;;;11.85;4.38;;;19.60;87.10;;;;;;5072582;28;20019;-69
2022/05/27 02:57:47;;;;;;;20.45;5.45;;;19.60;87.20;;;;;;5072466;28;20433;-68
2022/05/27 03:00:20;;;;;;;16.55;4.53;;;19.60;89.30;;;;;;5071972;28;20029;-67
2022/05/27 03:02:46;;;;;;;17.30;5.35;;;19.60;89.80;;;;;;5075026;28;20036;-68
2022/05/27 03:05:14;;;;;;;13.57;5.35;;;19.50;89.90;;;;;;5075515;28;20055;-62
2022/05/27 03:08:17;;;;;;;14.50;5.28;;;19.50;90.00;;;;;;5075809;28;20556;-67
2022/05/27 03:11:07;;;;;;;16.30;5.65;;;19.50;90.20;;;;;;5075749;28;20120;-67
2022/05/27 03:14:00;;;;;;;14.18;4.95;;;19.50;90.20;;;;;;5074725;28;20057;-63
2022/05/27 03:16:32;;;;;;;15.18;5.35;;;19.50;90.50;;;;;;5075245;28;20033;-66
2022/05/27 03:19:35;;;;;;;17.98;6.15;;;19.50;90.60;;;;;;5074682;28;20500;-68
2022/05/27 03:22:20;;;;;;;16.67;5.80;;;19.40;90.70;;;;;;5074179;28;20055;-63
2022/05/27 03:25:06;;;;;;;16.15;5.25;;;19.40;90.40;;;;;;5075205;28;20074;-65
2022/05/27 03:27:38;;;;;;;16.10;4.63;;;19.40;90.30;;;;;;5075129;28;20029;-67
2022/05/27 03:30:20;;;;;;;18.40;6.30;;;19.40;90.10;;;;;;5074844;28;20440;-63
2022/05/27 03:33:16;;;;;;;18.73;5.55;;;19.40;90.30;;;;;;5075464;28;20016;-67
2022/05/27 03:35:58;;;;;;;17.17;5.90;;;19.40;90.30;;;;;;5064970;28;20053;-63
2022/05/27 03:38:27;;;;;;;;;;;19.40;90.40;;;;;;5074936;28;20089;-66
2022/05/27 03:41:03;;;;;;;13.60;5.82;;;19.40;90.30;;;;;;5075107;28;20056;-59
2022/05/27 03:43:29;;;;;;;15.52;6.95;;;19.30;90.30;;;;;;5074837;28;20021;-67
2022/05/27 03:46:00;;;;;;;16.10;6.95;;;19.30;90.50;;;;;;5075403;28;20031;-61
2022/05/27 03:48:28;;;;;;;17.65;6.25;;;19.30;90.80;;;;;;5074848;28;20021;-66
2022/05/27 03:50:58;;;;;;;18.75;7.13;;;19.30;91.20;;;;;;5074682;28;20032;-62
2022/05/27 03:56:09;;;;;;;17.58;6.88;;;19.30;91.60;;;;;;5075212;28;20043;-62
2022/05/27 03:58:35;;;;;;;14.35;6.07;;;19.30;91.60;;;;;;5074612;28;20489;-61
2022/05/27 04:01:00;;;;;;;15.00;6.20;;;19.30;91.20;;;;;;5074601;28;20546;-66
2022/05/27 04:03:26;;;;;;;12.48;6.63;;;19.30;91.80;;;;;;5074493;28;20023;-62
2022/05/27 04:05:52;;;;;;;17.17;7.20;;;19.20;91.90;;;;;;5074330;28;20020;-60
2022/05/27 04:08:17;;;;;;;16.30;7.38;;;19.20;92.10;;;;;;5074655;28;20067;-59
2022/05/27 04:10:43;;;;;;;13.77;7.45;;;19.30;91.90;;;;;;5074296;28;20120;-60
2022/05/27 04:13:08;;;;;;;12.35;6.82;;;19.20;92.30;;;;;;5074193;28;20036;-61
2022/05/27 04:15:34;;;;;;;13.50;7.40;;;19.20;92.00;;;;;;5074241;28;20090;-61
2022/05/27 04:17:59;;;;;;;16.83;7.90;;;19.20;91.90;;;;;;5074194;28;20535;-62
2022/05/27 04:20:25;;;;;;;16.35;7.35;;;19.20;92.30;;;;;;5073933;28;20039;-64
2022/05/27 04:22:54;;;;;;;19.95;8.38;;;19.20;92.00;;;;;;5074618;28;20024;-63
2022/05/27 04:25:20;;;;;;;16.92;8.30;;;19.20;92.10;;;;;;5073639;28;20089;-62
2022/05/27 04:27:46;;;;;;;21.08;8.70;;;19.20;92.40;;;;;;5074219;28;20035;-62
2022/05/27 04:30:13;;;;;;;20.08;8.63;;;19.20;92.30;;;;;;5073769;28;20029;-61
2022/05/27 04:32:39;;;;;;;20.65;9.18;;;19.20;92.40;;;;;;5074230;28;20095;-62
2022/05/27 04:35:05;;;;;;;19.67;8.85;;;19.20;92.30;;;;;;5073821;28;20419;-65
2022/05/27 04:37:31;;;;;;;19.70;8.85;;;19.20;92.50;;;;;;5074188;28;20029;-64
2022/05/27 04:39:57;;;;;;;19.85;9.75;;;19.20;92.50;;;;;;5073259;28;20027;-62
2022/05/27 04:42:22;;;;;;;20.17;9.57;;;19.10;92.60;;;;;;5073877;28;20025;-68
2022/05/27 04:44:48;;;;;;;19.55;9.52;;;19.10;92.70;;;;;;5069988;28;20047;-66
2022/05/27 04:47:14;;;;;;;19.52;9.48;;;19.10;92.60;;;;;;5053206;28;20029;-65
2022/05/27 04:49:51;;;;;;;21.05;11.07;;;19.10;92.70;;;;;;5062299;28;20029;-67
2022/05/27 04:52:17;;;;;;;18.25;11.13;;;19.10;92.90;;;;;;5069875;28;20461;-66
2022/05/27 04:54:43;;;;;;;19.95;9.88;;;19.10;93.00;;;;;;5066033;28;20477;-64
2022/05/27 04:57:22;;;;;;;20.38;8.88;;;19.10;93.20;;;;;;5053451;28;20065;-69
2022/05/27 04:59:49;;;;;;;21.73;9.23;;;19.20;93.20;;;;;;5053514;28;20017;-70
2022/05/27 05:02:16;;;;;;;23.23;8.23;;;19.10;93.10;;;;;;5072017;28;20021;-68
2022/05/27 05:04:42;;;;;;;17.55;8.52;;;19.10;93.30;;;;;;5073392;28;20051;-68
2022/05/27 05:07:08;;;;;;;20.45;8.10;;;19.10;93.40;;;;;;5072886;28;20025;-63
2022/05/27 05:09:39;;;;;;;21.25;9.23;;;19.10;93.20;;;;;;5073144;28;20021;-66
2022/05/27 05:12:06;;;;;;;17.58;8.05;;;19.10;93.40;;;;;;5072945;28;20047;-60
2022/05/27 05:14:32;;;;;;;19.55;8.07;;;19.10;93.50;;;;;;5073348;28;20048;-66
2022/05/27 05:16:58;;;;;;;17.20;8.05;;;19.10;93.50;;;;;;5073188;28;20066;-60
2022/05/27 05:19:23;;;;;;;15.48;7.10;;;19.10;93.70;;;;;;5072646;28;20032;-62
2022/05/27 05:21:49;;;;;;;15.30;7.50;;;19.10;93.60;;;;;;5072640;28;20486;-61
2022/05/27 05:24:14;;;;;;;14.65;6.25;;;19.10;93.80;;;;;;5072499;28;20474;-61
2022/05/27 05:26:40;;;;;;;13.90;6.05;;;19.10;93.80;;;;;;5077399;28;20028;-61
2022/05/27 05:29:06;;;;;;;14.95;6.50;;;19.10;94.00;;;;;;5077617;28;20422;-60
2022/05/27 05:31:32;;;;;;;17.50;6.88;;;19.10;94.10;;;;;;5076601;28;20094;-60
2022/05/27 05:33:59;;;;;;;17.95;6.30;;;19.10;94.20;;;;;;5072358;28;20034;-66
2022/05/27 05:36:26;;;;;;;16.15;6.20;;;19.10;94.00;;;;;;5072627;28;20041;-63
2022/05/27 05:38:52;;;;;;;18.65;5.85;;;19.10;94.10;;;;;;5072515;28;20119;-63
2022/05/27 05:41:36;;;;;;;13.60;5.40;;;19.10;94.20;;;;;;5072594;28;20112;-60
2022/05/27 05:44:03;;;;;;;17.27;5.05;;;19.20;94.40;;;;;;5072293;28;20036;-60
2022/05/27 05:46:32;;;;;;;13.93;4.53;;;19.20;94.10;;;;;;5072382;28;20393;-64
2022/05/27 05:48:58;;;;;;;11.25;4.10;;;19.20;94.40;;;;;;5071690;28;20042;-70
2022/05/27 05:51:24;;;;;;;14.70;5.07;;;19.20;94.40;;;;;;5072338;28;20049;-70
2022/05/27 05:53:49;;;;;;;11.38;4.18;;;19.20;94.30;;;;;;5071793;28;20039;-66
2022/05/27 05:56:15;;;;;;;12.60;4.63;;;19.30;94.20;;;;;;5071055;28;20467;-69
2022/05/27 05:58:41;;;;;;;11.82;4.75;;;19.20;94.20;;;;;;5072584;28;20086;-65
2022/05/27 06:01:06;;;;;;;9.88;3.80;;;19.20;94.00;;;;;;5072324;28;20035;-65
2022/05/27 06:03:32;;;;;;;7.15;2.45;;;19.20;93.80;;;;;;5071909;28;20028;-68
2022/05/27 06:05:58;;;;;;;7.32;2.97;;;19.30;92.40;;;;;;5072842;28;20473;-60
2022/05/27 06:08:24;;;;;;;14.77;2.90;;;19.30;91.80;;;;;;5071844;28;20037;-67
2022/05/27 06:10:49;;;;;;;11.38;3.13;;;19.30;92.30;;;;;;5072018;28;20028;-65
2022/05/27 06:13:15;;;;;;;10.27;3.00;;;19.40;92.00;;;;;;5071295;28;20032;-65
2022/05/27 06:15:41;;;;;;;8.32;2.88;;;19.40;92.50;;;;;;5072542;28;20072;-68
2022/05/27 06:18:07;;;;;;;7.53;2.47;;;19.50;92.60;;;;;;5072223;28;20056;-68
2022/05/27 06:20:37;;;;;;;9.80;3.22;;;19.50;92.10;;;;;;5071680;28;20431;-67
2022/05/27 06:23:04;;;;;;;11.77;2.90;;;19.50;92.70;;;;;;5070522;28;20040;-68
2022/05/27 06:25:30;;;;;;;7.55;2.63;;;19.60;91.90;;;;;;5065367;28;20060;-67
2022/05/27 06:34:23;;;;;;;10.32;2.83;;;19.60;91.90;;;;;;5072174;28;20476;-68
2022/05/27 06:36:11;;;;;;;12.50;2.88;;;19.70;92.90;;;;;;5073080;28;20611;-72
2022/05/27 06:38:37;;;;;;;11.52;2.78;;;19.80;92.10;;;;;;5056954;28;20040;-72
2022/05/27 06:41:04;;;;;;;13.07;2.47;;;19.80;92.00;;;;;;5069291;28;20029;-61
2022/05/27 06:43:31;;;;;;;8.90;2.25;;;19.80;91.90;;;;;;5072530;28;20023;-66
2022/05/27 06:45:57;;;;;;;7.53;1.98;;;19.90;91.80;;;;;;5072697;28;20025;-61
2022/05/27 06:48:23;;;;;;;11.38;2.58;;;19.90;91.70;;;;;;5056038;28;20039;-70
2022/05/27 06:50:48;;;;;;;11.05;2.70;;;19.90;91.70;;;;;;5070433;28;20020;-72
2022/05/27 06:53:14;;;;;;;7.47;2.10;;;19.90;92.10;;;;;;5075880;28;20466;-70
2022/05/27 06:55:39;;;;;;;18.02;3.28;;;20.00;92.10;;;;;;5073333;28;20071;-71
2022/05/27 06:58:05;;;;;;;17.55;3.03;;;20.00;92.10;;;;;;5072848;28;20036;-72
2022/05/27 07:00:30;;;;;;;19.38;3.67;;;20.10;91.90;;;;;;5074546;28;20020;-66
2022/05/27 07:02:56;;;;;;;20.67;3.80;;;20.10;91.80;;;;;;5074761;28;20036;-69
2022/05/27 07:05:22;;;;;;;17.25;2.75;;;20.10;91.60;;;;;;5081460;28;20074;-70
2022/05/27 07:07:50;;;;;;;17.63;2.88;;;20.20;91.70;;;;;;5077029;28;20060;-72
2022/05/27 07:10:16;;;;;;;13.52;3.63;;;20.30;91.60;;;;;;5065577;28;20063;-67
2022/05/27 07:12:42;;;;;;;9.00;2.35;;;20.30;91.60;;;;;;5071010;28;20043;-62
2022/05/27 07:15:08;;;;;;;8.15;1.95;;;20.30;91.30;;;;;;5074113;28;20039;-67
2022/05/27 07:17:35;;;;;;;8.50;2.28;;;20.40;91.30;;;;;;5073764;28;20032;-68
2022/05/27 07:20:03;;;;;;;6.75;2.60;;;20.50;91.30;;;;;;5074308;28;20024;-62
2022/05/27 07:22:28;;;;;;;9.60;3.35;;;20.50;90.50;;;;;;5070826;28;20025;-62
2022/05/27 07:24:54;;;;;;;11.25;3.80;;;20.50;91.10;;;;;;5078486;28;20054;-66
2022/05/27 07:27:20;;;;;;;12.68;3.10;;;20.50;91.10;;;;;;5085900;28;20032;-60
2022/05/27 07:29:46;;;;;;;11.80;3.55;;;20.60;91.00;;;;;;5078819;28;20469;-71
2022/05/27 07:32:11;;;;;;;9.65;2.83;;;20.50;91.60;;;;;;5066649;28;20027;-67
2022/05/27 07:34:39;;;;;;;5.93;2.47;;;20.30;91.70;;;;;;5078473;28;20132;-69
2022/05/27 07:37:04;;;;;;;39.75;5.68;;;20.20;90.20;;;;;;5075988;28;20128;-62
2022/05/27 07:39:30;;;;;;;10.60;2.50;;;20.20;91.40;;;;;;5080083;28;20127;-66
2022/05/27 07:41:55;;;;;;;9.45;2.25;;;20.30;91.00;;;;;;5079860;28;20028;-62
2022/05/27 07:44:21;;;;;;;34.92;4.45;;;20.30;91.80;;;;;;5075788;28;20033;-65
2022/05/27 07:46:50;;;;;;;8.90;2.03;;;20.30;91.90;;;;;;5063869;28;20024;-59
2022/05/27 07:49:16;;;;;;;11.85;2.70;;;20.30;88.20;;;;;;5067220;28;20025;-62
2022/05/27 07:51:41;;;;;;;17.63;3.10;;;20.30;87.10;;;;;;5049200;28;20033;-63
2022/05/27 07:54:07;;;;;;;21.27;3.38;;;20.40;90.00;;;;;;5070018;28;20028;-61
2022/05/27 07:56:32;;;;;;;13.43;2.63;;;20.50;90.10;;;;;;5072044;28;20036;-63
2022/05/27 07:58:58;;;;;;;9.80;1.73;;;20.60;88.00;;;;;;5071661;28;20109;-60
2022/05/27 08:01:23;;;;;;;6.72;1.90;;;20.60;84.40;;;;;;5069265;28;20039;-63
2022/05/27 08:03:49;;;;;;;8.88;1.95;;;20.50;83.20;;;;;;5070697;28;20021;-65
2022/05/27 08:06:15;;;;;;;14.25;3.35;;;20.40;80.00;;;;;;5068967;28;20048;-63
2022/05/27 08:08:40;;;;;;;8.20;1.75;;;20.40;81.50;;;;;;5067034;28;20025;-63
2022/05/27 08:11:07;;;;;;;5.90;1.92;;;20.50;82.30;;;;;;5082820;28;20492;-61
2022/05/27 08:13:34;;;;;;;9.82;1.88;;;20.50;85.30;;;;;;5081880;28;20041;-59
2022/05/27 08:15:59;;;;;;;7.47;1.45;;;20.60;83.40;;;;;;5075225;28;20060;-60
2022/05/27 08:18:25;;;;;;;11.10;1.75;;;20.70;81.10;;;;;;5048075;28;20044;-64
2022/05/27 08:20:51;;;;;;;9.85;2.08;;;20.80;86.60;;;;;;5070549;28;20491;-61
2022/05/27 08:23:16;;;;;;;9.88;2.10;;;20.90;85.70;;;;;;5067638;28;20021;-63
2022/05/27 08:25:42;;;;;;;15.32;2.95;;;21.00;85.30;;;;;;5065817;28;20032;-67
2022/05/27 08:38:39;;;;;;;8.63;2.28;;;20.80;80.10;;;;;;5048260;22;20055;-62
2022/05/27 08:41:21;;;;;;;7.50;1.60;;;20.90;83.80;;;;;;5020851;28;20504;-62
2022/05/27 08:44:41;;;;;;;10.80;2.17;;;21.00;81.60;;;;;;5025183;28;20041;-62
2022/05/27 08:47:37;;;;;;;5.50;1.73;;;21.10;82.80;;;;;;4986159;28;20041;-60
2022/05/27 08:50:21;;;;;;;4.97;1.83;;;21.10;82.70;;;;;;5012425;28;20068;-59
2022/05/27 08:52:56;;;;;;;12.68;2.40;;;21.20;82.30;;;;;;5030026;28;20065;-63
2022/05/27 09:01:42;;;;;;;11.77;2.10;;;21.30;80.60;;;;;;5023204;28;20524;-62
2022/05/27 09:04:17;;;;;;;7.22;2.05;;;21.30;79.80;;;;;;5023771;28;20052;-63
2022/05/27 09:06:51;;;;;;;7.88;1.88;;;21.40;80.80;;;;;;5021933;28;20033;-64
2022/05/27 09:09:26;;;;;;;7.38;1.85;;;21.40;81.80;;;;;;5021216;28;20088;-63
2022/05/27 09:12:10;;;;;;;7.40;1.95;;;21.40;80.70;;;;;;5025216;28;20033;-63
2022/05/27 09:14:41;;;;;;;6.45;1.40;;;21.40;77.60;;;;;;5017572;28;20038;-65
2022/05/27 09:17:31;;;;;;;16.10;2.67;;;21.50;76.80;;;;;;5019279;28;20041;-64
2022/05/27 09:20:09;;;;;;;7.22;1.92;;;21.50;79.50;;;;;;5013781;28;20034;-64
2022/05/27 09:22:49;;;;;;;8.20;1.92;;;21.50;78.80;;;;;;5013641;28;20164;-65
2022/05/27 09:25:56;;;;;;;8.30;2.50;;;21.50;77.70;;;;;;5023398;28;20126;-65
2022/05/27 09:28:28;;;;;;;10.18;2.90;;;21.50;78.00;;;;;;5014373;28;20030;-64
2022/05/27 09:30:57;;;;;;;5.93;1.60;;;21.50;77.10;;;;;;5015569;28;20118;-65
2022/05/27 09:33:26;;;;;;;8.50;2.00;;;21.50;74.90;;;;;;5012093;28;20033;-65
2022/05/27 09:36:12;;;;;;;11.93;2.45;;;21.50;76.50;;;;;;5017818;28;20128;-65
2022/05/27 09:38:52;;;;;;;6.95;1.90;;;21.60;76.10;;;;;;4999948;28;20034;-63
2022/05/27 09:41:34;;;;;;;8.00;1.90;;;21.60;75.90;;;;;;5007999;28;20033;-65
2022/05/27 09:44:23;;;;;;;7.90;2.30;;;21.60;75.20;;;;;;5019221;28;20029;-65
2022/05/27 09:46:49;;;;;;;6.93;2.13;;;21.60;75.00;;;;;;5008089;28;20038;-63
2022/05/27 09:49:15;;;;;;;6.25;1.63;;;21.60;73.20;;;;;;5008426;28;20034;-65
2022/05/27 09:51:40;;;;;;;8.30;2.08;;;21.60;72.20;;;;;;5010305;28;20049;-65
2022/05/27 09:54:21;;;;;;;8.45;2.42;;;21.60;72.30;;;;;;5010612;28;20109;-66
2022/05/27 09:57:23;;;;;;;7.15;1.85;;;21.70;73.20;;;;;;5008629;28;20116;-65
2022/05/27 09:59:57;;;;;;;7.85;3.08;;;21.70;72.20;;;;;;5006613;28;20033;-63
2022/05/27 10:02:30;;;;;;;10.70;2.22;;;21.70;72.90;;;;;;5008860;28;20157;-60
2022/05/27 10:05:02;;;;;;;8.82;2.05;;;21.70;72.30;;;;;;5008170;28;20061;-65
2022/05/27 10:07:30;;;;;;;;;;;21.70;71.60;;;;;;5009476;28;20042;-62
2022/05/27 10:09:56;;;;;;;7.40;1.52;;;21.70;72.20;;;;;;5007606;28;19913;-66
2022/05/27 10:12:33;;;;;;;7.05;2.05;;;21.70;71.70;;;;;;5014494;28;20042;-63
2022/05/27 10:14:59;;;;;;;6.40;1.60;;;21.70;71.80;;;;;;5013260;28;20038;-65
2022/05/27 10:17:36;;;;;;;8.10;2.25;;;21.80;70.80;;;;;;5013804;28;20120;-60
2022/05/27 10:20:36;;;;;;;14.27;2.20;;;21.80;70.70;;;;;;5014271;28;20144;-65
2022/05/27 10:23:08;;;;;;;9.10;2.30;;;21.80;69.30;;;;;;5014890;28;20347;-64
2022/05/27 10:25:38;;;;;;;7.25;1.98;;;21.80;68.60;;;;;;5008169;28;20026;-66
2022/05/27 10:28:05;;;;;;;8.02;1.60;;;21.90;68.90;;;;;;5014699;28;20534;-66
2022/05/27 10:30:38;;;;;;;10.82;2.33;;;21.90;70.20;;;;;;5015269;28;20026;-66
2022/05/27 10:33:36;;;;;;;7.30;2.15;;;21.90;70.00;;;;;;5015162;28;20044;-65
2022/05/27 10:36:02;;;;;;;6.30;2.10;;;22.00;70.60;;;;;;4999783;28;20093;-65
2022/05/27 10:38:50;;;;;;;8.57;2.35;;;21.90;70.20;;;;;;5004880;28;20048;-65
2022/05/27 10:41:30;;;;;;;10.25;2.50;;;22.00;69.90;;;;;;5009628;28;20109;-65
2022/05/27 10:44:19;;;;;;;7.05;2.20;;;22.00;68.20;;;;;;5010008;28;20494;-64
2022/05/27 10:46:51;;;;;;;9.65;2.28;;;22.00;69.80;;;;;;5014629;28;20037;-62
2022/05/27 10:49:44;;;;;;;11.45;2.40;;;22.00;70.90;;;;;;4993112;28;20037;-66
2022/05/27 10:52:18;;;;;;;9.65;2.75;;;22.00;69.70;;;;;;4997775;28;20053;-65
2022/05/27 10:54:55;;;;;;;9.43;2.58;;;22.00;69.70;;;;;;5010827;28;20118;-66
2022/05/27 11:03:20;;;;;;;7.85;1.75;;;22.10;70.60;;;;;;5008809;28;20048;-67
2022/05/27 11:05:55;;;;;;;8.68;2.42;;;22.10;71.70;;;;;;5011498;28;20041;-66
2022/05/27 11:08:26;;;;;;;10.40;2.25;;;22.10;72.20;;;;;;5007800;28;20084;-66
2022/05/27 11:11:00;;;;;;;7.70;2.63;;;22.10;72.80;;;;;;5008858;28;20040;-66
2022/05/27 11:17:04;;;;;;;10.32;2.40;;;22.10;69.80;;;;;;5010428;28;20088;-66
2022/05/27 11:19:57;;;;;;;8.80;2.53;;;22.10;69.80;;;;;;5007067;28;20041;-65
2022/05/27 11:22:58;;;;;;;8.85;2.90;;;22.10;68.90;;;;;;5011394;28;20299;-68
2022/05/27 11:25:37;;;;;;;13.73;2.88;;;22.10;66.70;;;;;;4926612;29;20237;-60
2022/05/27 11:28:44;;;;;;;12.55;2.85;;;22.20;68.00;;;;;;4996778;28;20045;-65
2022/05/27 11:31:36;;;;;;;12.68;3.05;;;22.20;71.00;;;;;;4971026;28;20576;-63
2022/05/27 11:34:20;;;;;;;13.02;2.50;;;22.20;72.50;;;;;;5011564;28;20033;-62
2022/05/27 11:36:55;;;;;;;7.97;2.17;;;22.20;73.00;;;;;;4994110;28;21216;-64
2022/05/27 11:39:51;;;;;;;16.90;2.90;;;22.10;66.00;;;;;;5012324;28;20025;-65
2022/05/27 11:42:28;;;;;;;9.50;2.60;;;22.20;70.20;;;;;;5012391;28;20026;-65
2022/05/27 11:45:21;;;;;;;14.57;2.83;;;22.20;69.50;;;;;;5014446;28;20044;-65
2022/05/27 11:48:35;;;;;;;8.90;2.67;;;22.20;69.40;;;;;;5004384;28;20033;-61
2022/05/27 11:51:11;;;;;;;10.38;2.63;;;22.20;69.60;;;;;;4995392;28;20109;-61
2022/05/27 11:54:00;;;;;;;11.68;2.55;;;22.20;70.50;;;;;;5013305;28;20114;-64
2022/05/27 11:56:40;;;;;;;7.68;1.88;;;22.20;69.60;;;;;;5013289;28;20434;-65
2022/05/27 11:59:23;;;;;;;12.52;2.70;;;22.20;70.20;;;;;;5012589;28;20030;-63
2022/05/27 12:01:53;;;;;;;8.32;2.38;;;22.20;65.30;;;;;;5013089;28;20022;-64
2022/05/27 12:04:37;;;;;;;12.80;3.33;;;22.20;68.90;;;;;;5013849;28;20112;-65
2022/05/27 12:07:24;;;;;;;8.63;1.92;;;22.20;70.50;;;;;;5012959;28;20065;-64
2022/05/27 12:10:13;;;;;;;6.95;2.28;;;22.20;70.40;;;;;;5012107;28;20103;-63
2022/05/27 12:12:51;;;;;;;10.77;2.55;;;22.20;69.50;;;;;;5012048;28;20034;-65
2022/05/27 12:15:29;;;;;;;13.40;2.85;;;22.30;67.40;;;;;;5003333;28;20356;-65
2022/05/27 12:17:56;;;;;;;12.13;2.55;;;22.30;67.60;;;;;;5010116;28;20041;-60
2022/05/27 12:20:27;;;;;;;11.45;2.67;;;22.20;69.40;;;;;;5015400;28;20055;-65
2022/05/27 12:22:54;;;;;;;7.82;2.55;;;22.30;69.50;;;;;;5015918;28;20026;-65
2022/05/27 12:25:24;;;;;;;10.50;2.38;;;22.30;69.20;;;;;;5011208;28;20036;-65
2022/05/27 12:27:51;;;;;;;10.65;2.58;;;22.30;70.10;;;;;;5011165;28;20034;-61
2022/05/27 12:30:28;;;;;;;10.68;3.28;;;22.30;69.90;;;;;;5005877;28;20041;-63
2022/05/27 12:32:54;;;;;;;12.07;2.60;;;22.30;69.70;;;;;;5007613;28;20478;-67
2022/05/27 12:35:43;;;;;;;10.55;3.28;;;22.30;67.30;;;;;;5012542;28;20028;-63
2022/05/27 12:38:15;;;;;;;9.57;2.83;;;22.30;66.90;;;;;;5012377;28;20686;-65
2022/05/27 12:40:45;;;;;;;11.07;3.08;;;22.30;65.90;;;;;;5008732;28;20026;-60
2022/05/27 12:43:21;;;;;;;10.52;2.60;;;22.30;66.40;;;;;;5007471;28;20045;-64
2022/05/27 12:46:02;;;;;;;9.07;2.05;;;22.30;69.50;;;;;;5005597;28;20084;-63
2022/05/27 12:48:42;;;;;;;11.32;2.38;;;22.30;69.70;;;;;;5007732;28;20049;-64
2022/05/27 12:51:16;;;;;;;13.23;3.33;;;22.30;65.70;;;;;;5008236;28;20030;-64
2022/05/27 12:53:48;;;;;;;6.13;2.08;;;22.40;66.70;;;;;;5005978;28;20037;-66
2022/05/27 13:02:21;;;;;;;10.38;3.25;;;22.30;67.30;;;;;;5007180;28;20084;-64
2022/05/27 13:04:56;;;;;;;11.02;2.33;;;22.40;68.40;;;;;;5008928;28;20488;-64
2022/05/27 13:07:33;;;;;;;10.05;2.55;;;22.30;68.80;;;;;;5009449;28;20022;-65
2022/05/27 13:10:17;;;;;;;9.52;2.63;;;22.30;65.40;;;;;;5011303;28;20065;-65
2022/05/27 13:12:42;;;;;;;8.43;3.28;;;22.40;64.40;;;;;;5009562;28;20033;-64
2022/05/27 13:15:28;;;;;;;8.18;2.47;;;22.30;63.30;;;;;;5010702;28;20038;-65
2022/05/27 13:18:12;;;;;;;11.57;2.83;;;22.30;64.00;;;;;;5008989;28;20470;-65
2022/05/27 13:21:02;;;;;;;8.63;2.55;;;22.40;65.00;;;;;;5011469;28;20117;-64
2022/05/27 13:23:30;;;;;;;10.48;2.97;;;22.30;68.10;;;;;;5009249;28;20037;-64
2022/05/27 13:26:06;;;;;;;9.27;2.50;;;22.30;64.60;;;;;;5009674;28;20030;-64
2022/05/27 13:28:39;;;;;;;10.50;2.65;;;22.20;61.70;;;;;;5010624;28;20030;-64
2022/05/27 13:31:12;;;;;;;11.23;2.28;;;22.30;63.50;;;;;;5011796;28;20029;-65
2022/05/27 13:33:47;;;;;;;9.65;2.63;;;22.30;66.10;;;;;;5013163;28;20030;-63
2022/05/27 13:36:19;;;;;;;12.52;2.65;;;22.30;67.40;;;;;;5012322;28;20032;-62
2022/05/27 13:38:52;;;;;;;9.40;2.80;;;22.30;64.20;;;;;;5011137;28;20475;-64
2022/05/27 13:41:18;;;;;;;9.88;2.45;;;22.30;66.50;;;;;;5012655;28;20034;-66
2022/05/27 13:43:47;;;;;;;10.00;2.58;;;22.30;65.00;;;;;;5009283;28;20511;-64
2022/05/27 13:46:25;;;;;;;8.50;2.63;;;22.30;63.20;;;;;;5011814;28;20088;-64
2022/05/27 13:49:01;;;;;;;9.40;2.42;;;22.30;62.20;;;;;;5011412;28;20093;-64
2022/05/27 13:51:27;;;;;;;10.73;2.83;;;22.30;65.00;;;;;;5011867;28;20439;-65
2022/05/27 13:53:54;;;;;;;10.48;2.65;;;22.30;62.40;;;;;;5011403;28;20104;-62
2022/05/27 13:56:34;;;;;;;10.68;2.20;;;22.30;63.80;;;;;;5010946;28;20040;-62